Notice: Undefined index: in /volume1/web/weather2/wsIconUrl.php on line 132 WARNING - Change wsUserSettings.php: $SITE["topfolder"] from : weather2/ to: ./

Leobendorf more information Leobendorf


Thunder radar more information blitzortung!


Rain radar  rain snow radar


Besuchen Sie unsere anderen Wetter Stationen:

Template documentation
and downloads

And another site



Es ist keine erhöhte Aufmerksamkeit aufgrund des Wetters notwendig.    Es gibt keine Warnungen.

Weather Underground History Seite Text

Tägliche Zusammenfassung für August 21, 2017 Einheiten:  metrisch    Englisch   Beide
« Vorherige Tag
nächste Tag »
Tägliche Wöchentliche Monatliche Jährlich Custom
  aktuell: Hoch: Wenig: Durchchnittswerte:
Temperatur: 20.9 °C 20.9 °C 10.7 °C 13.9 °C
Taupunkt: 11.2 °C 12.3 °C 8.8 °C 10.3 °C
Luftfeuchte: 54 % 89 % 53 % 80 %
Windgeschwindigkeit: 4.8 km/h 16.1 km/h 0.0 km/h 7.1 km/h
Windböen: 20.9 km/h 25.7 km/h - -
Wind:NNW - - WNW
Luftdruck: 1021.2 hPa 1022.6 hPa 1021.2 hPa -
Niederschlag: 0.0 mm      
Historical Graphs
 
 
Tabular Data für August 21, 2017
Zeit Temperatur Taupunkt Luftdruck Wind Windgeschwindigkeit Windböen Luftfeuchte Niederschlag Rate (pro Stunde)
00:03 13.7 °C 11.2 °C 1021.9 hPa WNW 3.2 km/h 11.3 km/h 85 % 0.0 mm
00:08 13.6 °C 11.1 °C 1021.9 hPa WNW 3.2 km/h 11.3 km/h 85 % 0.0 mm
00:13 13.4 °C 10.9 °C 1021.9 hPa West 4.8 km/h 8.0 km/h 85 % 0.0 mm
00:18 13.1 °C 10.6 °C 1021.9 hPa WNW 3.2 km/h 9.7 km/h 85 % 0.0 mm
00:23 12.8 °C 10.5 °C 1021.9 hPa NW 4.8 km/h 9.7 km/h 86 % 0.0 mm
00:28 12.7 °C 10.4 °C 1021.9 hPa WNW 6.4 km/h 11.3 km/h 86 % 0.0 mm
00:33 12.7 °C 10.6 °C 1021.9 hPa West 4.8 km/h 11.3 km/h 87 % 0.0 mm
00:38 12.6 °C 10.5 °C 1021.9 hPa WNW 8.0 km/h 9.7 km/h 87 % 0.0 mm
00:43 12.6 °C 10.5 °C 1021.9 hPa NW 3.2 km/h 11.3 km/h 87 % 0.0 mm
00:48 12.5 °C 10.4 °C 1021.9 hPa WNW 6.4 km/h 11.3 km/h 87 % 0.0 mm
00:53 12.4 °C 10.3 °C 1022.2 hPa WNW 4.8 km/h 11.3 km/h 87 % 0.0 mm
00:58 12.4 °C 10.5 °C 1022.2 hPa WNW 3.2 km/h 11.3 km/h 88 % 0.0 mm
01:03 12.3 °C 10.4 °C 1022.2 hPa WNW 3.2 km/h 11.3 km/h 88 % 0.0 mm
01:08 12.2 °C 10.3 °C 1022.2 hPa NNW 4.8 km/h 9.7 km/h 88 % 0.0 mm
01:13 12.1 °C 10.2 °C 1022.2 hPa West 6.4 km/h 9.7 km/h 88 % 0.0 mm
01:18 12.1 °C 10.2 °C 1022.2 hPa WNW 4.8 km/h 11.3 km/h 88 % 0.0 mm
01:23 12.1 °C 10.2 °C 1022.2 hPa WNW 8.0 km/h 11.3 km/h 88 % 0.0 mm
01:28 12.1 °C 10.2 °C 1022.2 hPa WNW 6.4 km/h 11.3 km/h 88 % 0.0 mm
01:33 12.1 °C 10.3 °C 1022.2 hPa West 9.7 km/h 11.3 km/h 89 % 0.0 mm
01:38 12.2 °C 10.4 °C 1022.2 hPa WNW 8.0 km/h 11.3 km/h 89 % 0.0 mm
01:43 12.2 °C 10.4 °C 1022.2 hPa WNW 9.7 km/h 11.3 km/h 89 % 0.0 mm
01:48 12.2 °C 10.4 °C 1022.2 hPa WNW 9.7 km/h 12.9 km/h 89 % 0.0 mm
01:53 12.2 °C 10.4 °C 1022.2 hPa WNW 6.4 km/h 12.9 km/h 89 % 0.0 mm
01:58 12.2 °C 10.4 °C 1022.2 hPa WNW 8.0 km/h 12.9 km/h 89 % 0.0 mm
02:03 12.2 °C 10.3 °C 1022.2 hPa WNW 6.4 km/h 12.9 km/h 88 % 0.0 mm
02:08 12.1 °C 10.2 °C 1022.2 hPa NW 4.8 km/h 11.3 km/h 88 % 0.0 mm
02:13 12.1 °C 10.2 °C 1022.2 hPa WNW 6.4 km/h 12.9 km/h 88 % 0.0 mm
02:18 11.9 °C 10.0 °C 1022.2 hPa NW 4.8 km/h 12.9 km/h 88 % 0.0 mm
02:23 11.9 °C 10.0 °C 1022.2 hPa WNW 8.0 km/h 12.9 km/h 88 % 0.0 mm
02:28 11.8 °C 9.9 °C 1022.2 hPa WNW 4.8 km/h 11.3 km/h 88 % 0.0 mm
02:33 11.8 °C 10.0 °C 1022.2 hPa WNW 4.8 km/h 11.3 km/h 89 % 0.0 mm
02:38 11.7 °C 9.9 °C 1022.2 hPa West 8.0 km/h 11.3 km/h 89 % 0.0 mm
02:43 11.7 °C 9.9 °C 1022.2 hPa WNW 6.4 km/h 9.7 km/h 89 % 0.0 mm
02:48 11.7 °C 9.8 °C 1022.2 hPa West 6.4 km/h 11.3 km/h 88 % 0.0 mm
02:53 11.7 °C 9.8 °C 1022.2 hPa WNW 6.4 km/h 11.3 km/h 88 % 0.0 mm
02:58 11.6 °C 9.7 °C 1022.2 hPa WNW 4.8 km/h 11.3 km/h 88 % 0.0 mm
03:03 11.6 °C 9.7 °C 1022.2 hPa WNW 8.0 km/h 11.3 km/h 88 % 0.0 mm
03:08 11.6 °C 9.8 °C 1022.2 hPa WNW 4.8 km/h 11.3 km/h 89 % 0.0 mm
03:13 11.5 °C 9.7 °C 1022.2 hPa West 8.0 km/h 9.7 km/h 89 % 0.0 mm
03:18 11.5 °C 9.7 °C 1022.2 hPa WNW 6.4 km/h 11.3 km/h 89 % 0.0 mm
03:23 11.4 °C 9.7 °C 1022.2 hPa WNW 8.0 km/h 11.3 km/h 89 % 0.0 mm
03:28 11.4 °C 9.7 °C 1022.2 hPa NW 6.4 km/h 11.3 km/h 89 % 0.0 mm
03:34 11.3 °C 9.6 °C 1022.2 hPa WNW 6.4 km/h 11.3 km/h 89 % 0.0 mm
03:39 11.3 °C 9.6 °C 1022.2 hPa NW 4.8 km/h 11.3 km/h 89 % 0.0 mm
03:44 11.2 °C 9.5 °C 1022.2 hPa WNW 4.8 km/h 9.7 km/h 89 % 0.0 mm
03:49 11.1 °C 9.4 °C 1021.9 hPa WNW 4.8 km/h 11.3 km/h 89 % 0.0 mm
03:54 10.9 °C 9.2 °C 1021.9 hPa WNW 6.4 km/h 11.3 km/h 89 % 0.0 mm
03:59 10.9 °C 9.2 °C 1021.9 hPa WNW 4.8 km/h 11.3 km/h 89 % 0.0 mm
04:04 10.9 °C 9.2 °C 1022.2 hPa NW 3.2 km/h 11.3 km/h 89 % 0.0 mm
04:09 10.8 °C 9.1 °C 1022.2 hPa West 6.4 km/h 11.3 km/h 89 % 0.0 mm
04:14 10.8 °C 9.1 °C 1022.2 hPa West 8.0 km/h 11.3 km/h 89 % 0.0 mm
04:19 10.9 °C 9.2 °C 1021.9 hPa West 8.0 km/h 11.3 km/h 89 % 0.0 mm
04:24 10.9 °C 9.2 °C 1021.9 hPa WNW 6.4 km/h 11.3 km/h 89 % 0.0 mm
04:29 10.9 °C 9.2 °C 1022.2 hPa WNW 9.7 km/h 11.3 km/h 89 % 0.0 mm
04:34 10.9 °C 9.2 °C 1022.2 hPa WNW 8.0 km/h 14.5 km/h 89 % 0.0 mm
04:39 11.0 °C 9.3 °C 1022.2 hPa NW 6.4 km/h 14.5 km/h 89 % 0.0 mm
04:44 11.0 °C 9.3 °C 1022.2 hPa NW 9.7 km/h 14.5 km/h 89 % 0.0 mm
04:49 10.9 °C 9.2 °C 1022.2 hPa WNW 9.7 km/h 16.1 km/h 89 % 0.0 mm
04:54 10.9 °C 9.2 °C 1021.9 hPa West 9.7 km/h 16.1 km/h 89 % 0.0 mm
04:59 10.9 °C 9.2 °C 1021.9 hPa West 6.4 km/h 16.1 km/h 89 % 0.0 mm
05:04 10.8 °C 9.1 °C 1021.9 hPa West 8.0 km/h 12.9 km/h 89 % 0.0 mm
05:09 10.8 °C 9.1 °C 1022.2 hPa WNW 9.7 km/h 12.9 km/h 89 % 0.0 mm
05:14 10.8 °C 9.1 °C 1022.2 hPa WNW 4.8 km/h 14.5 km/h 89 % 0.0 mm
05:19 10.8 °C 9.1 °C 1021.9 hPa WNW 8.0 km/h 14.5 km/h 89 % 0.0 mm
05:24 10.8 °C 8.9 °C 1021.9 hPa NW 3.2 km/h 14.5 km/h 88 % 0.0 mm
05:29 10.7 °C 8.8 °C 1021.9 hPa NW 6.4 km/h 14.5 km/h 88 % 0.0 mm
05:34 10.7 °C 8.8 °C 1021.9 hPa WNW 8.0 km/h 11.3 km/h 88 % 0.0 mm
05:39 10.7 °C 8.8 °C 1021.9 hPa NNW 8.0 km/h 11.3 km/h 88 % 0.0 mm
05:44 10.7 °C 8.8 °C 1022.2 hPa WNW 12.9 km/h 12.9 km/h 88 % 0.0 mm
05:49 10.7 °C 8.8 °C 1022.2 hPa WNW 6.4 km/h 12.9 km/h 88 % 0.0 mm
05:54 10.7 °C 8.8 °C 1022.2 hPa West 8.0 km/h 12.9 km/h 88 % 0.0 mm
05:59 10.7 °C 8.8 °C 1022.2 hPa NNW 4.8 km/h 14.5 km/h 88 % 0.0 mm
06:04 10.8 °C 8.9 °C 1022.2 hPa WNW 8.0 km/h 14.5 km/h 88 % 0.0 mm
06:09 10.9 °C 9.0 °C 1022.2 hPa West 9.7 km/h 14.5 km/h 88 % 0.0 mm
06:14 11.0 °C 9.1 °C 1022.2 hPa NW 3.2 km/h 14.5 km/h 88 % 0.0 mm
06:19 11.1 °C 9.2 °C 1022.2 hPa NW 6.4 km/h 14.5 km/h 88 % 0.0 mm
06:24 11.2 °C 9.3 °C 1022.2 hPa WNW 8.0 km/h 14.5 km/h 88 % 0.0 mm
06:29 11.3 °C 9.4 °C 1022.2 hPa NNW 6.4 km/h 12.9 km/h 88 % 0.0 mm
06:34 11.4 °C 9.5 °C 1022.2 hPa WNW 8.0 km/h 14.5 km/h 88 % 0.0 mm
06:39 11.5 °C 9.4 °C 1022.2 hPa NW 8.0 km/h 14.5 km/h 87 % 0.0 mm
06:44 11.6 °C 9.7 °C 1022.2 hPa WNW 6.4 km/h 14.5 km/h 88 % 0.0 mm
06:49 11.7 °C 9.6 °C 1022.2 hPa WNW 9.7 km/h 14.5 km/h 87 % 0.0 mm
06:55 11.9 °C 9.8 °C 1022.2 hPa NW 3.2 km/h 14.5 km/h 87 % 0.0 mm
07:00 12.1 °C 10.0 °C 1022.2 hPa WNW 6.4 km/h 16.1 km/h 87 % 0.0 mm
07:05 12.2 °C 10.1 °C 1022.2 hPa West 11.3 km/h 16.1 km/h 87 % 0.0 mm
07:10 12.2 °C 10.1 °C 1022.2 hPa NW 4.8 km/h 16.1 km/h 87 % 0.0 mm
07:15 12.3 °C 10.0 °C 1022.2 hPa WNW 9.7 km/h 14.5 km/h 86 % 0.0 mm
07:20 12.3 °C 10.0 °C 1022.2 hPa NW 4.8 km/h 14.5 km/h 86 % 0.0 mm
07:25 12.4 °C 10.1 °C 1022.2 hPa WNW 6.4 km/h 14.5 km/h 86 % 0.0 mm
07:30 12.6 °C 10.3 °C 1022.2 hPa NW 6.4 km/h 12.9 km/h 86 % 0.0 mm
07:35 12.7 °C 10.4 °C 1022.2 hPa West 9.7 km/h 12.9 km/h 86 % 0.0 mm
07:40 12.8 °C 10.5 °C 1022.2 hPa WNW 4.8 km/h 14.5 km/h 86 % 0.0 mm
07:45 13.1 °C 10.6 °C 1022.2 hPa West 4.8 km/h 14.5 km/h 85 % 0.0 mm
07:50 13.3 °C 10.7 °C 1022.2 hPa WNW 6.4 km/h 14.5 km/h 84 % 0.0 mm
07:55 13.6 °C 10.9 °C 1022.2 hPa West 8.0 km/h 14.5 km/h 84 % 0.0 mm
08:00 13.8 °C 11.0 °C 1022.2 hPa West 4.8 km/h 12.9 km/h 83 % 0.0 mm
08:06 14.1 °C 11.1 °C 1022.2 hPa WNW 6.4 km/h 20.9 km/h 82 % 0.0 mm
08:11 14.2 °C 10.8 °C 1022.2 hPa WSW 9.7 km/h 20.9 km/h 80 % 0.0 mm
08:16 14.2 °C 10.6 °C 1022.6 hPa West 6.4 km/h 17.7 km/h 79 % 0.0 mm
08:21 14.4 °C 10.6 °C 1022.6 hPa WNW 9.7 km/h 17.7 km/h 78 % 0.0 mm
08:26 14.5 °C 10.7 °C 1022.6 hPa West 9.7 km/h 17.7 km/h 78 % 0.0 mm
08:31 14.6 °C 10.6 °C 1022.6 hPa WNW 11.3 km/h 17.7 km/h 77 % 0.0 mm
08:36 14.8 °C 10.8 °C 1022.6 hPa NW 11.3 km/h 16.1 km/h 77 % 0.0 mm
08:41 14.9 °C 10.7 °C 1022.6 hPa West 8.0 km/h 14.5 km/h 76 % 0.0 mm
08:46 15.2 °C 10.8 °C 1022.6 hPa West 12.9 km/h 14.5 km/h 75 % 0.0 mm
08:51 15.3 °C 10.3 °C 1022.6 hPa West 6.4 km/h 16.1 km/h 72 % 0.0 mm
08:56 15.5 °C 10.5 °C 1022.6 hPa NNW 6.4 km/h 16.1 km/h 72 % 0.0 mm
09:01 15.6 °C 10.6 °C 1022.6 hPa WNW 4.8 km/h 16.1 km/h 72 % 0.0 mm
09:06 15.8 °C 10.8 °C 1022.6 hPa West 4.8 km/h 14.5 km/h 72 % 0.0 mm
09:11 16.2 °C 11.1 °C 1022.6 hPa WNW 4.8 km/h 12.9 km/h 72 % 0.0 mm
09:16 16.3 °C 11.0 °C 1022.2 hPa WNW 4.8 km/h 12.9 km/h 71 % 0.0 mm
09:21 16.3 °C 11.0 °C 1022.2 hPa WSW 6.4 km/h 12.9 km/h 71 % 0.0 mm
09:26 16.5 °C 11.2 °C 1022.2 hPa WSW 3.2 km/h 12.9 km/h 71 % 0.0 mm
09:31 16.8 °C 11.1 °C 1022.2 hPa WSW 3.2 km/h 12.9 km/h 69 % 0.0 mm
09:36 17.0 °C 11.5 °C 1022.2 hPa Calm   14.5 km/h 70 % 0.0 mm
09:41 17.2 °C 11.2 °C 1022.2 hPa WNW 4.8 km/h 14.5 km/h 68 % 0.0 mm
09:46 17.3 °C 11.6 °C 1022.2 hPa NNW 9.7 km/h 11.3 km/h 69 % 0.0 mm
09:51 17.4 °C 11.0 °C 1022.2 hPa NW 3.2 km/h 14.5 km/h 66 % 0.0 mm
09:56 17.7 °C 11.7 °C 1021.9 hPa West 6.4 km/h 14.5 km/h 68 % 0.0 mm
10:01 17.8 °C 11.8 °C 1022.2 hPa West 4.8 km/h 14.5 km/h 68 % 0.0 mm
10:06 18.0 °C 11.6 °C 1021.9 hPa West 9.7 km/h 14.5 km/h 66 % 0.0 mm
10:11 18.1 °C 11.9 °C 1021.9 hPa WNW 12.9 km/h 17.7 km/h 67 % 0.0 mm
10:16 18.5 °C 11.3 °C 1021.9 hPa North 4.8 km/h 20.9 km/h 63 % 0.0 mm
10:21 18.4 °C 11.2 °C 1021.9 hPa West 9.7 km/h 20.9 km/h 63 % 0.0 mm
10:26 18.8 °C 11.4 °C 1021.9 hPa NW 6.4 km/h 19.3 km/h 62 % 0.0 mm
10:31 19.0 °C 11.3 °C 1021.9 hPa WSW 3.2 km/h 17.7 km/h 61 % 0.0 mm
10:36 18.9 °C 10.7 °C 1021.9 hPa West 11.3 km/h 17.7 km/h 59 % 0.0 mm
10:41 19.1 °C 11.4 °C 1021.9 hPa WNW 14.5 km/h 16.1 km/h 61 % 0.0 mm
10:46 19.4 °C 11.4 °C 1021.9 hPa NW 1.6 km/h 20.9 km/h 60 % 0.0 mm
10:51 19.8 °C 12.3 °C 1021.9 hPa North 8.0 km/h 20.9 km/h 62 % 0.0 mm
10:56 19.8 °C 11.8 °C 1021.9 hPa NNW 14.5 km/h 25.7 km/h 60 % 0.0 mm
11:01 19.2 °C 10.7 °C 1021.9 hPa WNW 1.6 km/h 25.7 km/h 58 % 0.0 mm
11:06 19.5 °C 11.3 °C 1021.9 hPa West 9.7 km/h 25.7 km/h 59 % 0.0 mm
11:07 19.4 °C 10.7 °C 1021.9 hPa West 11.3 km/h 25.7 km/h 57 % 0.0 mm
11:12 19.4 °C 10.9 °C 1021.6 hPa WNW 8.0 km/h 16.1 km/h 58 % 0.0 mm
11:17 19.9 °C 11.4 °C 1021.6 hPa WNW 8.0 km/h 14.5 km/h 58 % 0.0 mm
11:22 20.6 °C 12.0 °C 1021.6 hPa WNW 12.9 km/h 16.1 km/h 58 % 0.0 mm
11:27 20.2 °C 11.1 °C 1021.6 hPa West 6.4 km/h 17.7 km/h 56 % 0.0 mm
11:32 20.3 °C 11.0 °C 1021.6 hPa West 11.3 km/h 17.7 km/h 55 % 0.0 mm
11:37 20.0 °C 10.4 °C 1021.6 hPa West 16.1 km/h 19.3 km/h 54 % 0.0 mm
11:42 20.8 °C 11.4 °C 1021.6 hPa WNW 9.7 km/h 19.3 km/h 55 % 0.0 mm
11:47 20.6 °C 10.7 °C 1021.2 hPa WNW 9.7 km/h 20.9 km/h 53 % 0.0 mm
11:52 20.4 °C 10.5 °C 1021.2 hPa WNW 9.7 km/h 20.9 km/h 53 % 0.0 mm
11:57 20.4 °C 11.3 °C 1021.2 hPa West 16.1 km/h 20.9 km/h 56 % 0.0 mm
12:02 20.8 °C 11.7 °C 1021.2 hPa WNW 14.5 km/h 20.9 km/h 56 % 0.0 mm
12:07 20.8 °C 11.4 °C 1021.2 hPa West 12.9 km/h 20.9 km/h 55 % 0.0 mm
12:12 20.9 °C 11.2 °C 1021.2 hPa NNW 4.8 km/h 20.9 km/h 54 % 0.0 mm
Leobendorf Wetter
Datensammlung von Weather Underground - 2 mb

Script entwickelt von  Jim McMurry - jmcmurry@mwt.net Angepasst für das Template von  Wim van der Kuil - Leuven-Template.eu

Sie finden unser Wetter-Infos auch auf:

UK Metoffice

European Weather Network

Weather Underground

AWEKAS

Citizen Weather Observer Program (CWOP)

Von uns verwendete Ausrüstung:

Wetterstation
Davis VP2

Wetterprogramm
Meteohub

Davis VP2

Meteohub